Time;durP1;ratioP1;P1;durP2;ratioP2;P2;SDS_P1;SDS_P2;PMS_P1;PMS_P2;Temp;Humidity;BMP_temperature;BMP_pressure;BME280_temperature;BME280_humidity;BME280_pressure;Samples;Min_cycle;Max_cycle;Signal;HPM_P1;HPM_P2
2021/04/07 00:01:03;;;;;;;5.07;2.00;;;;;;;;;;3586556;40;20400;-53
2021/04/07 00:03:28;;;;;;;5.65;2.08;;;;;;;;;;3585601;40;20028;-50
2021/04/07 00:05:54;;;;;;;4.32;2.10;;;;;;;;;;3585380;40;20028;-50
2021/04/07 00:08:21;;;;;;;5.57;2.20;;;;;;;;;;3586070;40;20057;-52
2021/04/07 00:10:47;;;;;;;10.50;2.28;;;;;;;;;;3585832;40;20296;-48
2021/04/07 00:13:14;;;;;;;6.65;2.65;;;;;;;;;;3586194;40;20032;-52
2021/04/07 00:15:40;;;;;;;4.97;2.13;;;;;;;;;;3586540;40;20036;-51
2021/04/07 00:18:06;;;;;;;7.15;2.42;;;;;;;;;;3586133;40;20461;-51
2021/04/07 00:20:32;;;;;;;3.63;1.98;;;;;;;;;;3585615;40;20033;-51
2021/04/07 00:22:58;;;;;;;6.53;2.47;;;;;;;;;;3586113;40;20134;-49
2021/04/07 00:25:26;;;;;;;4.38;2.28;;;;;;;;;;3586416;40;20039;-52
2021/04/07 00:27:55;;;;;;;5.45;2.80;;;;;;;;;;3584514;40;20028;-52
2021/04/07 00:30:26;;;;;;;6.47;2.50;;;;;;;;;;3585943;40;20028;-53
2021/04/07 00:32:52;;;;;;;7.57;2.85;;;;;;;;;;3585529;40;20081;-51
2021/04/07 00:35:18;;;;;;;6.40;2.47;;;;;;;;;;3585945;40;20275;-50
2021/04/07 00:37:43;;;;;;;4.25;2.50;;;;;;;;;;3585411;40;20091;-50
2021/04/07 00:40:09;;;;;;;6.28;3.28;;;;;;;;;;3586329;40;20383;-50
2021/04/07 00:42:36;;;;;;;4.53;2.28;;;;;;;;;;3585943;40;20037;-48
2021/04/07 00:45:02;;;;;;;6.15;2.92;;;;;;;;;;3585575;40;20288;-49
2021/04/07 00:47:28;;;;;;;6.80;2.72;;;;;;;;;;3585876;40;20060;-52
2021/04/07 00:49:53;;;;;;;5.32;2.50;;;;;;;;;;3586246;40;20052;-52
2021/04/07 00:52:18;;;;;;;4.25;2.65;;;;;;;;;;3586456;40;20490;-54
2021/04/07 00:54:44;;;;;;;7.85;2.95;;;;;;;;;;3586710;40;20052;-49
2021/04/07 00:57:10;;;;;;;9.25;2.55;;;;;;;;;;3587641;40;20043;-49
2021/04/07 00:59:35;;;;;;;5.07;2.83;;;;;;;;;;3587924;40;20045;-49
2021/04/07 01:02:01;;;;;;;4.35;2.38;;;;;;;;;;3587841;40;20272;-52
2021/04/07 01:04:27;;;;;;;5.45;2.88;;;;;;;;;;3586774;40;20819;-49
2021/04/07 01:06:53;;;;;;;5.93;3.30;;;;;;;;;;3587368;40;20048;-52
2021/04/07 01:09:18;;;;;;;4.50;2.83;;;;;;;;;;3587316;40;20032;-51
2021/04/07 01:11:44;;;;;;;7.65;3.50;;;;;;;;;;3587175;40;20055;-51
2021/04/07 01:14:10;;;;;;;6.13;3.25;;;;;;;;;;3586435;40;20132;-54
2021/04/07 01:16:36;;;;;;;6.97;3.30;;;;;;;;;;3587382;40;20137;-51
2021/04/07 01:19:02;;;;;;;7.35;3.08;;;;;;;;;;3587348;40;20045;-50
2021/04/07 01:21:27;;;;;;;9.15;3.45;;;;;;;;;;3586625;40;20081;-52
2021/04/07 01:23:52;;;;;;;4.45;2.70;;;;;;;;;;3587540;40;20113;-52
2021/04/07 01:26:18;;;;;;;7.55;3.38;;;;;;;;;;3587341;40;20040;-49
2021/04/07 01:28:44;;;;;;;6.45;3.33;;;;;;;;;;3586894;40;20120;-51
2021/04/07 01:31:10;;;;;;;6.47;3.03;;;;;;;;;;3587183;40;20396;-51
2021/04/07 01:33:36;;;;;;;7.88;3.17;;;;;;;;;;3587513;40;20040;-52
2021/04/07 01:36:02;;;;;;;8.32;3.40;;;;;;;;;;3587012;40;20047;-51
2021/04/07 01:38:27;;;;;;;6.40;3.08;;;;;;;;;;3587080;40;20040;-53
2021/04/07 01:40:54;;;;;;;6.55;3.47;;;;;;;;;;3587075;40;20055;-52
2021/04/07 01:43:21;;;;;;;8.50;3.33;;;;;;;;;;3587141;40;20346;-50
2021/04/07 01:45:47;;;;;;;5.53;2.30;;;;;;;;;;3585988;40;20407;-52
2021/04/07 01:48:14;;;;;;;7.75;2.42;;;;;;;;;;3587004;40;20046;-49
2021/04/07 01:50:41;;;;;;;5.25;2.85;;;;;;;;;;3587377;40;20032;-51
2021/04/07 01:53:09;;;;;;;8.75;3.33;;;;;;;;;;3586358;40;20033;-49
2021/04/07 01:55:35;;;;;;;6.20;2.90;;;;;;;;;;3586732;40;20035;-47
2021/04/07 01:58:00;;;;;;;11.43;3.30;;;;;;;;;;3586515;40;20032;-51
2021/04/07 02:00:25;;;;;;;8.82;2.63;;;;;;;;;;3587121;40;20147;-51
2021/04/07 02:02:51;;;;;;;8.90;2.83;;;;;;;;;;3586255;40;20217;-49
2021/04/07 02:05:16;;;;;;;7.43;2.85;;;;;;;;;;3586373;40;20081;-49
2021/04/07 02:07:42;;;;;;;4.15;2.80;;;;;;;;;;3587309;40;20033;-51
2021/04/07 02:10:10;;;;;;;9.82;3.40;;;;;;;;;;3586199;40;20029;-53
2021/04/07 02:12:35;;;;;;;8.88;2.90;;;;;;;;;;3586762;40;20280;-52
2021/04/07 02:15:23;;;;;;;10.18;3.15;;;;;;;;;;3586924;40;20039;-47
2021/04/07 02:17:49;;;;;;;5.05;2.50;;;;;;;;;;3586922;40;20043;-53
2021/04/07 02:20:15;;;;;;;5.50;2.97;;;;;;;;;;3586832;40;20044;-48
2021/04/07 02:22:40;;;;;;;7.47;3.17;;;;;;;;;;3587011;40;20411;-48
2021/04/07 02:25:07;;;;;;;6.50;2.83;;;;;;;;;;3586769;40;20050;-50
2021/04/07 02:27:34;;;;;;;5.63;2.95;;;;;;;;;;3586542;40;20044;-48
2021/04/07 02:30:00;;;;;;;7.10;2.95;;;;;;;;;;3586052;40;20115;-49
2021/04/07 02:32:26;;;;;;;7.40;3.72;;;;;;;;;;3586438;40;20039;-50
2021/04/07 02:34:52;;;;;;;11.18;3.47;;;;;;;;;;3586937;40;20438;-49
2021/04/07 02:37:19;;;;;;;7.00;3.38;;;;;;;;;;3586378;40;20122;-49
2021/04/07 02:39:46;;;;;;;10.88;2.92;;;;;;;;;;3584467;40;20047;-53
2021/04/07 02:42:12;;;;;;;5.25;2.95;;;;;;;;;;3586045;40;20040;-51
2021/04/07 02:44:39;;;;;;;6.38;2.97;;;;;;;;;;3586358;40;20049;-48
2021/04/07 02:47:05;;;;;;;5.50;3.47;;;;;;;;;;3586827;40;20056;-50
2021/04/07 02:49:32;;;;;;;9.00;3.42;;;;;;;;;;3586596;40;20044;-53
2021/04/07 02:51:57;;;;;;;5.28;3.15;;;;;;;;;;3586259;40;20041;-51
2021/04/07 02:54:23;;;;;;;11.15;2.95;;;;;;;;;;3586965;40;20047;-51
2021/04/07 02:56:48;;;;;;;6.80;3.67;;;;;;;;;;3586847;40;20037;-50
2021/04/07 02:59:14;;;;;;;8.38;2.90;;;;;;;;;;3585602;40;20045;-52
2021/04/07 03:01:40;;;;;;;6.93;3.33;;;;;;;;;;3586668;40;20412;-48
2021/04/07 03:04:05;;;;;;;6.70;2.70;;;;;;;;;;3586517;40;20043;-49
2021/04/07 03:06:30;;;;;;;5.75;2.85;;;;;;;;;;3586531;40;20040;-50
2021/04/07 03:08:56;;;;;;;6.00;3.10;;;;;;;;;;3585742;40;20041;-48
2021/04/07 03:11:21;;;;;;;7.93;2.85;;;;;;;;;;3585340;40;20418;-50
2021/04/07 03:13:47;;;;;;;11.40;3.83;;;;;;;;;;3586488;40;20037;-52
2021/04/07 03:16:12;;;;;;;7.28;3.63;;;;;;;;;;3585575;40;20041;-53
2021/04/07 03:18:38;;;;;;;5.68;3.15;;;;;;;;;;3586856;40;20181;-49
2021/04/07 03:21:04;;;;;;;8.60;3.22;;;;;;;;;;3586535;40;20032;-50
2021/04/07 03:23:29;;;;;;;7.40;3.25;;;;;;;;;;3586411;40;20357;-50
2021/04/07 03:25:55;;;;;;;6.35;2.42;;;;;;;;;;3586280;40;20045;-54
2021/04/07 03:28:21;;;;;;;5.57;2.35;;;;;;;;;;3586224;40;20040;-50
2021/04/07 03:30:52;;;;;;;6.32;2.38;;;;;;;;;;3586181;40;20042;-51
2021/04/07 03:33:23;;;;;;;6.97;2.80;;;;;;;;;;3584926;40;20418;-49
2021/04/07 03:35:50;;;;;;;12.05;3.30;;;;;;;;;;3585728;40;20271;-48
2021/04/07 03:38:16;;;;;;;7.35;2.55;;;;;;;;;;3586274;40;20056;-53
2021/04/07 03:40:42;;;;;;;9.43;3.08;;;;;;;;;;3585605;40;20055;-49
2021/04/07 03:43:09;;;;;;;5.80;2.35;;;;;;;;;;3584323;40;20132;-49
2021/04/07 03:45:35;;;;;;;9.50;2.45;;;;;;;;;;3586397;40;20451;-49
2021/04/07 03:48:01;;;;;;;5.32;2.47;;;;;;;;;;3586246;40;20040;-50
2021/04/07 03:50:27;;;;;;;7.22;3.08;;;;;;;;;;3584972;40;20049;-50
2021/04/07 03:52:53;;;;;;;5.18;2.20;;;;;;;;;;3585161;40;20113;-53
2021/04/07 03:55:19;;;;;;;5.65;2.40;;;;;;;;;;3585507;40;20052;-54
2021/04/07 03:57:45;;;;;;;9.57;2.88;;;;;;;;;;3585596;40;20387;-52
2021/04/07 04:00:11;;;;;;;9.10;2.95;;;;;;;;;;3585672;40;20035;-54
2021/04/07 04:02:37;;;;;;;9.20;2.53;;;;;;;;;;3582540;40;20033;-48
2021/04/07 04:05:04;;;;;;;10.05;2.95;;;;;;;;;;3585771;40;20505;-55
2021/04/07 04:07:29;;;;;;;12.63;3.65;;;;;;;;;;3585532;40;20387;-52
2021/04/07 04:09:54;;;;;;;10.85;2.88;;;;;;;;;;3586676;40;20044;-51
2021/04/07 04:12:20;;;;;;;7.47;2.28;;;;;;;;;;3585517;40;20257;-52
2021/04/07 04:14:45;;;;;;;9.18;2.63;;;;;;;;;;3586198;40;20110;-51
2021/04/07 04:17:10;;;;;;;5.43;2.22;;;;;;;;;;3586080;40;20118;-48
2021/04/07 04:19:36;;;;;;;13.30;2.90;;;;;;;;;;3586085;40;20045;-55
2021/04/07 04:22:04;;;;;;;8.18;2.40;;;;;;;;;;3585363;40;20839;-51
2021/04/07 04:24:29;;;;;;;7.18;2.42;;;;;;;;;;3586078;40;20044;-51
2021/04/07 04:26:54;;;;;;;8.10;2.50;;;;;;;;;;3586821;40;20043;-54
2021/04/07 04:29:20;;;;;;;6.68;2.40;;;;;;;;;;3587828;40;20054;-52
2021/04/07 04:31:45;;;;;;;8.20;2.85;;;;;;;;;;3586612;40;20364;-50
2021/04/07 04:34:11;;;;;;;10.70;2.97;;;;;;;;;;3587521;40;20415;-51
2021/04/07 04:36:36;;;;;;;9.48;2.53;;;;;;;;;;3587346;40;20037;-50
2021/04/07 04:39:03;;;;;;;6.80;2.20;;;;;;;;;;3586967;40;20080;-52
2021/04/07 04:41:28;;;;;;;12.07;3.15;;;;;;;;;;3586556;40;20076;-54
2021/04/07 04:43:53;;;;;;;13.13;3.63;;;;;;;;;;3587969;40;20055;-53
2021/04/07 04:46:19;;;;;;;8.80;2.97;;;;;;;;;;3587630;40;20060;-52
2021/04/07 04:48:44;;;;;;;12.55;3.40;;;;;;;;;;3586983;40;20056;-52
2021/04/07 04:51:09;;;;;;;11.88;3.45;;;;;;;;;;3586707;40;20028;-48
2021/04/07 04:53:35;;;;;;;10.20;2.78;;;;;;;;;;3587520;40;20126;-52
2021/04/07 04:56:00;;;;;;;11.52;2.78;;;;;;;;;;3586910;40;20053;-48
2021/04/07 04:58:25;;;;;;;7.50;2.30;;;;;;;;;;3587759;40;20297;-53
2021/04/07 05:00:51;;;;;;;14.77;2.75;;;;;;;;;;3587373;40;20361;-53
2021/04/07 05:03:16;;;;;;;10.45;2.67;;;;;;;;;;3587322;40;20057;-51
2021/04/07 05:05:41;;;;;;;7.40;2.65;;;;;;;;;;3587014;40;20055;-50
2021/04/07 05:08:07;;;;;;;15.25;2.67;;;;;;;;;;3587351;40;20048;-54
2021/04/07 05:10:32;;;;;;;8.02;2.17;;;;;;;;;;3587431;40;20036;-50
2021/04/07 05:12:58;;;;;;;8.40;2.13;;;;;;;;;;3587501;40;20069;-52
2021/04/07 05:15:23;;;;;;;9.98;2.13;;;;;;;;;;3586401;40;20126;-51
2021/04/07 05:17:49;;;;;;;5.20;1.92;;;;;;;;;;3587520;40;20040;-50
2021/04/07 05:20:15;;;;;;;7.78;2.20;;;;;;;;;;3587450;40;20039;-51
2021/04/07 05:22:40;;;;;;;8.32;2.72;;;;;;;;;;3586911;40;20045;-50
2021/04/07 05:25:06;;;;;;;6.75;1.88;;;;;;;;;;3586284;40;20032;-50
2021/04/07 05:27:31;;;;;;;10.35;2.30;;;;;;;;;;3587700;40;20041;-50
2021/04/07 05:29:57;;;;;;;5.35;1.73;;;;;;;;;;3587509;40;20036;-50
2021/04/07 05:32:22;;;;;;;4.55;2.00;;;;;;;;;;3587025;40;20058;-50
2021/04/07 05:34:47;;;;;;;11.40;2.38;;;;;;;;;;3586815;40;20032;-53
2021/04/07 05:37:13;;;;;;;8.55;2.08;;;;;;;;;;3586624;40;20029;-52
2021/04/07 05:39:38;;;;;;;5.57;1.65;;;;;;;;;;3587362;40;20125;-53
2021/04/07 05:42:04;;;;;;;10.50;1.73;;;;;;;;;;3585613;40;20116;-48
2021/04/07 05:44:30;;;;;;;6.95;1.83;;;;;;;;;;3587021;40;20092;-51
2021/04/07 05:46:57;;;;;;;6.53;1.80;;;;;;;;;;3587330;40;20058;-50
2021/04/07 05:49:25;;;;;;;5.00;2.00;;;;;;;;;;3585800;40;20044;-50
2021/04/07 05:51:51;;;;;;;8.70;2.50;;;;;;;;;;3586195;40;20275;-48
2021/04/07 05:54:16;;;;;;;6.90;2.10;;;;;;;;;;3587038;40;20044;-48
2021/04/07 05:56:42;;;;;;;5.25;1.88;;;;;;;;;;3587194;40;20032;-51
2021/04/07 05:59:07;;;;;;;8.63;1.80;;;;;;;;;;3586989;40;20056;-50
2021/04/07 06:01:32;;;;;;;8.32;1.90;;;;;;;;;;3586651;40;20072;-54
2021/04/07 06:03:58;;;;;;;8.82;2.10;;;;;;;;;;3586366;40;20085;-54
2021/04/07 06:06:23;;;;;;;6.13;1.88;;;;;;;;;;3585935;40;20040;-53
2021/04/07 06:08:49;;;;;;;5.68;1.92;;;;;;;;;;3587091;40;20035;-51
2021/04/07 06:11:16;;;;;;;6.80;2.50;;;;;;;;;;3585641;40;20044;-55
2021/04/07 06:13:42;;;;;;;6.15;2.15;;;;;;;;;;3587208;40;20060;-51
2021/04/07 06:16:07;;;;;;;7.82;2.55;;;;;;;;;;3586513;40;20113;-52
2021/04/07 06:18:33;;;;;;;9.00;2.50;;;;;;;;;;3586584;40;20040;-52
2021/04/07 06:20:59;;;;;;;5.53;1.90;;;;;;;;;;3587096;40;20072;-53
2021/04/07 06:23:24;;;;;;;5.78;1.98;;;;;;;;;;3584518;40;20126;-52
2021/04/07 06:25:49;;;;;;;6.90;2.17;;;;;;;;;;3586319;40;20117;-52
2021/04/07 06:28:16;;;;;;;5.88;2.38;;;;;;;;;;3586787;40;20384;-49
2021/04/07 06:30:45;;;;;;;6.75;2.10;;;;;;;;;;3586931;40;20064;-50
2021/04/07 06:33:13;;;;;;;6.97;2.15;;;;;;;;;;3586210;40;20036;-51
2021/04/07 06:35:40;;;;;;;6.15;2.00;;;;;;;;;;3586955;40;20043;-49
2021/04/07 06:38:05;;;;;;;10.82;2.65;;;;;;;;;;3586975;40;20499;-53
2021/04/07 06:40:32;;;;;;;5.85;1.52;;;;;;;;;;3586700;40;20048;-53
2021/04/07 06:42:59;;;;;;;4.80;1.75;;;;;;;;;;3585860;40;20044;-53
2021/04/07 06:45:26;;;;;;;7.57;2.13;;;;;;;;;;3586269;40;20072;-53
2021/04/07 06:47:52;;;;;;;8.50;2.10;;;;;;;;;;3586589;40;20037;-49
2021/04/07 06:50:18;;;;;;;13.25;2.28;;;;;;;;;;3593948;39;20080;-53
2021/04/07 06:52:44;;;;;;;4.90;1.73;;;;;;;;;;3585697;40;20036;-51
2021/04/07 06:55:11;;;;;;;9.02;2.10;;;;;;;;;;3586692;40;20025;-51
2021/04/07 06:57:36;;;;;;;6.28;1.60;;;;;;;;;;3586762;40;20043;-53
2021/04/07 07:00:08;;;;;;;4.90;1.95;;;;;;;;;;3586466;40;20040;-51
2021/04/07 07:02:34;;;;;;;7.97;1.85;;;;;;;;;;3585864;40;20253;-55
2021/04/07 07:05:01;;;;;;;4.30;1.67;;;;;;;;;;3586676;40;20148;-56
2021/04/07 07:07:27;;;;;;;4.88;1.60;;;;;;;;;;3586564;40;20029;-52
2021/04/07 07:09:53;;;;;;;7.47;1.75;;;;;;;;;;3586093;40;20369;-52
2021/04/07 07:12:23;;;;;;;10.10;2.10;;;;;;;;;;3586347;40;20126;-54
2021/04/07 07:14:49;;;;;;;4.90;1.42;;;;;;;;;;3587160;40;20385;-54
2021/04/07 07:17:31;;;;;;;5.82;1.90;;;;;;;;;;3586068;40;20028;-56
2021/04/07 07:19:57;;;;;;;9.18;1.42;;;;;;;;;;3586465;40;20047;-54
2021/04/07 07:22:27;;;;;;;6.70;2.10;;;;;;;;;;3586333;40;20044;-52
2021/04/07 07:24:58;;;;;;;10.07;2.67;;;;;;;;;;3585593;40;20125;-54
2021/04/07 07:27:38;;;;;;;6.15;2.03;;;;;;;;;;3586811;40;20058;-51
2021/04/07 07:30:06;;;;;;;5.10;1.67;;;;;;;;;;3586194;40;20579;-55
2021/04/07 07:32:34;;;;;;;6.75;2.13;;;;;;;;;;3586482;40;20032;-52
2021/04/07 07:35:07;;;;;;;6.18;2.10;;;;;;;;;;3586486;40;20043;-52
2021/04/07 07:37:33;;;;;;;5.93;2.28;;;;;;;;;;3586297;40;20041;-52
2021/04/07 07:39:58;;;;;;;10.30;2.38;;;;;;;;;;3586883;40;20300;-54
2021/04/07 07:42:24;;;;;;;5.28;2.20;;;;;;;;;;3585898;40;20059;-50
2021/04/07 07:44:49;;;;;;;8.10;2.95;;;;;;;;;;3586611;40;20049;-50
2021/04/07 07:47:25;;;;;;;9.25;2.25;;;;;;;;;;3586484;40;20041;-48
2021/04/07 07:49:55;;;;;;;5.78;2.00;;;;;;;;;;3585663;40;20037;-52
2021/04/07 07:52:27;;;;;;;8.85;2.55;;;;;;;;;;3586508;40;20037;-51
2021/04/07 07:54:52;;;;;;;6.32;2.35;;;;;;;;;;3585906;40;20068;-51
2021/04/07 07:57:17;;;;;;;7.97;2.42;;;;;;;;;;3585867;40;20048;-51
2021/04/07 07:59:43;;;;;;;6.25;2.30;;;;;;;;;;3586730;40;20067;-53
2021/04/07 08:02:18;;;;;;;13.52;2.63;;;;;;;;;;3585427;40;20044;-52
2021/04/07 08:04:45;;;;;;;11.10;2.30;;;;;;;;;;3584952;40;20048;-53
2021/04/07 08:07:12;;;;;;;9.50;2.83;;;;;;;;;;3585920;40;20047;-50
2021/04/07 08:09:38;;;;;;;5.85;2.33;;;;;;;;;;3585672;40;20113;-53
2021/04/07 08:12:05;;;;;;;4.82;2.47;;;;;;;;;;3585077;40;20068;-55
2021/04/07 08:14:30;;;;;;;10.15;3.15;;;;;;;;;;3585617;40;20028;-53
2021/04/07 08:16:57;;;;;;;7.20;2.28;;;;;;;;;;3585592;40;20044;-52
2021/04/07 08:19:23;;;;;;;6.03;2.10;;;;;;;;;;3585870;40;20052;-51
2021/04/07 08:21:50;;;;;;;5.88;2.20;;;;;;;;;;3586134;40;20051;-53
2021/04/07 08:24:17;;;;;;;3.80;2.00;;;;;;;;;;3585850;40;20040;-49
2021/04/07 08:26:44;;;;;;;6.93;2.15;;;;;;;;;;3585906;40;20395;-54
2021/04/07 08:29:10;;;;;;;9.48;2.20;;;;;;;;;;3583604;40;20028;-53
2021/04/07 08:31:38;;;;;;;4.78;1.90;;;;;;;;;;3585986;40;20279;-53
2021/04/07 08:34:09;;;;;;;7.68;2.50;;;;;;;;;;3586029;40;20059;-54
2021/04/07 08:36:34;;;;;;;9.40;1.80;;;;;;;;;;3586103;40;20028;-53
2021/04/07 08:39:05;;;;;;;4.32;1.50;;;;;;;;;;3584915;40;20035;-51
2021/04/07 08:41:31;;;;;;;3.90;1.80;;;;;;;;;;3585195;40;20384;-53
2021/04/07 08:43:58;;;;;;;5.47;1.85;;;;;;;;;;3585935;40;20137;-54
2021/04/07 08:46:26;;;;;;;3.03;1.40;;;;;;;;;;3585608;40;20037;-53
2021/04/07 08:48:52;;;;;;;8.93;2.00;;;;;;;;;;3584712;40;20384;-50
2021/04/07 08:51:20;;;;;;;3.90;1.50;;;;;;;;;;3585892;40;20036;-52
2021/04/07 08:53:49;;;;;;;3.95;1.60;;;;;;;;;;3585726;40;20048;-52
2021/04/07 08:56:29;;;;;;;5.38;1.95;;;;;;;;;;3585112;40;20122;-55
2021/04/07 08:58:56;;;;;;;3.22;1.38;;;;;;;;;;3585414;40;20033;-53
2021/04/07 09:01:33;;;;;;;5.40;2.17;;;;;;;;;;3585542;40;20032;-54
2021/04/07 09:04:08;;;;;;;7.65;2.17;;;;;;;;;;3585876;40;20110;-53
2021/04/07 09:06:34;;;;;;;7.65;2.15;;;;;;;;;;3585425;40;20150;-51
2021/04/07 09:09:03;;;;;;;5.45;2.17;;;;;;;;;;3585969;40;20325;-52
2021/04/07 09:11:34;;;;;;;5.55;2.03;;;;;;;;;;3585587;40;20041;-51
2021/04/07 09:14:04;;;;;;;4.97;1.80;;;;;;;;;;3586563;40;20039;-53
2021/04/07 09:16:38;;;;;;;8.10;2.03;;;;;;;;;;3586722;40;20052;-54
2021/04/07 09:19:16;;;;;;;3.70;1.80;;;;;;;;;;3587170;40;20044;-51
2021/04/07 09:22:05;;;;;;;4.97;2.53;;;;;;;;;;3585166;40;20041;-55
2021/04/07 09:24:37;;;;;;;8.85;3.45;;;;;;;;;;3587282;40;20029;-53
2021/04/07 09:27:02;;;;;;;7.07;2.60;;;;;;;;;;3587096;40;20044;-55
2021/04/07 09:29:28;;;;;;;7.25;1.90;;;;;;;;;;3586938;40;20338;-55
2021/04/07 09:31:54;;;;;;;7.78;2.60;;;;;;;;;;3586475;40;20033;-53
2021/04/07 09:34:19;;;;;;;6.50;2.50;;;;;;;;;;3586671;40;20043;-52
2021/04/07 09:36:47;;;;;;;6.95;2.25;;;;;;;;;;3587320;40;20045;-49
2021/04/07 09:39:14;;;;;;;4.10;1.88;;;;;;;;;;3587092;40;20033;-54
2021/04/07 09:41:43;;;;;;;8.07;2.33;;;;;;;;;;3587547;40;20125;-50
2021/04/07 09:44:13;;;;;;;9.43;2.22;;;;;;;;;;3586171;40;20110;-52
2021/04/07 09:46:39;;;;;;;7.75;2.42;;;;;;;;;;3586403;40;20239;-54
2021/04/07 09:49:11;;;;;;;6.55;2.10;;;;;;;;;;3586620;40;20056;-54
2021/04/07 09:51:43;;;;;;;9.23;2.47;;;;;;;;;;3587059;40;20403;-52
2021/04/07 09:54:18;;;;;;;6.03;2.45;;;;;;;;;;3586096;40;20047;-55
2021/04/07 09:57:05;;;;;;;13.73;5.03;;;;;;;;;;3586313;40;20537;-54
2021/04/07 09:59:45;;;;;;;13.88;8.13;;;;;;;;;;3587186;40;20274;-53
2021/04/07 10:02:24;;;;;;;6.60;2.65;;;;;;;;;;3586448;40;20044;-54
2021/04/07 10:04:51;;;;;;;9.95;2.70;;;;;;;;;;3585714;40;20036;-52
2021/04/07 10:07:30;;;;;;;6.55;2.22;;;;;;;;;;3586921;40;20052;-53
2021/04/07 10:09:57;;;;;;;9.57;2.42;;;;;;;;;;3586723;40;20158;-50
2021/04/07 10:12:25;;;;;;;11.05;2.58;;;;;;;;;;3586159;40;20041;-49
2021/04/07 10:14:54;;;;;;;8.95;2.88;;;;;;;;;;3587142;40;20084;-48
2021/04/07 10:17:23;;;;;;;9.88;2.47;;;;;;;;;;3587264;40;20041;-49
2021/04/07 10:19:49;;;;;;;8.90;2.47;;;;;;;;;;3587407;40;20065;-53
2021/04/07 10:22:29;;;;;;;10.70;2.83;;;;;;;;;;3586124;40;20083;-49
2021/04/07 10:27:45;;;;;;;7.10;2.80;;;;;;;;;;3586757;40;20075;-53
2021/04/07 10:30:16;;;;;;;7.47;2.47;;;;;;;;;;3586077;40;20040;-54
2021/04/07 10:32:46;;;;;;;6.32;2.42;;;;;;;;;;3586153;40;20029;-55
2021/04/07 10:35:19;;;;;;;6.63;2.08;;;;;;;;;;3586663;40;20024;-49
2021/04/07 10:38:09;;;;;;;8.40;2.30;;;;;;;;;;3586514;40;20060;-51
2021/04/07 10:40:37;;;;;;;10.93;2.03;;;;;;;;;;3586036;40;20382;-55
2021/04/07 10:43:11;;;;;;;5.15;2.00;;;;;;;;;;3583312;40;20036;-54
2021/04/07 10:45:36;;;;;;;6.97;2.30;;;;;;;;;;3586518;40;20049;-52
2021/04/07 10:48:03;;;;;;;5.90;1.98;;;;;;;;;;3586113;40;20042;-53
2021/04/07 10:50:30;;;;;;;4.50;1.70;;;;;;;;;;3586796;40;20049;-50
2021/04/07 10:52:56;;;;;;;5.05;1.60;;;;;;;;;;3586344;40;20117;-52
2021/04/07 10:55:24;;;;;;;7.15;2.10;;;;;;;;;;3585564;40;20051;-53
2021/04/07 10:57:53;;;;;;;6.93;1.70;;;;;;;;;;3586711;40;20037;-53
2021/04/07 11:00:26;;;;;;;4.88;1.50;;;;;;;;;;3586496;40;20028;-55
2021/04/07 11:02:52;;;;;;;4.30;1.50;;;;;;;;;;3585711;40;20061;-55
2021/04/07 11:05:19;;;;;;;8.35;2.10;;;;;;;;;;3586367;40;20403;-53
2021/04/07 11:07:45;;;;;;;6.55;1.95;;;;;;;;;;3586669;40;20037;-52
2021/04/07 11:10:14;;;;;;;5.80;2.10;;;;;;;;;;3585895;40;20032;-52
2021/04/07 11:12:41;;;;;;;5.63;1.90;;;;;;;;;;3586011;40;20029;-52
2021/04/07 11:15:13;;;;;;;5.95;1.90;;;;;;;;;;3584078;40;20032;-52
2021/04/07 11:17:49;;;;;;;5.75;2.53;;;;;;;;;;3586008;40;20043;-50
2021/04/07 11:20:15;;;;;;;6.28;2.10;;;;;;;;;;3585555;40;20406;-53
2021/04/07 11:22:40;;;;;;;6.90;2.40;;;;;;;;;;3585682;40;20028;-54
2021/04/07 11:25:06;;;;;;;7.72;4.28;;;;;;;;;;3585147;40;20495;-52
2021/04/07 11:27:36;;;;;;;6.00;2.28;;;;;;;;;;3582063;40;20040;-52
2021/04/07 11:30:03;;;;;;;8.25;3.10;;;;;;;;;;3586276;40;20036;-54
2021/04/07 11:32:30;;;;;;;7.10;2.03;;;;;;;;;;3586418;40;20025;-51
2021/04/07 11:35:04;;;;;;;6.72;1.90;;;;;;;;;;3585625;40;20036;-51
2021/04/07 11:40:03;;;;;;;5.28;1.40;;;;;;;;;;3586461;40;20033;-52
2021/04/07 11:45:10;;;;;;;5.30;1.67;;;;;;;;;;3586808;40;20330;-54
2021/04/07 11:47:35;;;;;;;5.70;1.55;;;;;;;;;;3586273;40;20037;-56
2021/04/07 11:50:02;;;;;;;5.22;1.33;;;;;;;;;;3586564;40;20067;-56
2021/04/07 11:52:31;;;;;;;11.18;2.83;;;;;;;;;;3585182;40;20036;-56
2021/04/07 11:54:57;;;;;;;4.35;1.67;;;;;;;;;;3586462;40;20071;-55
2021/04/07 11:57:22;;;;;;;3.22;1.83;;;;;;;;;;3585982;40;20608;-54
2021/04/07 11:59:48;;;;;;;5.28;1.77;;;;;;;;;;3585907;40;20065;-54
2021/04/07 12:02:13;;;;;;;3.53;1.20;;;;;;;;;;3586031;40;20043;-54
2021/04/07 12:04:38;;;;;;;4.60;1.40;;;;;;;;;;3584871;40;20037;-54
2021/04/07 12:07:04;;;;;;;4.18;1.58;;;;;;;;;;3585611;40;20043;-50
2021/04/07 12:09:30;;;;;;;4.95;1.58;;;;;;;;;;3586345;40;20035;-52
2021/04/07 12:11:55;;;;;;;4.13;1.67;;;;;;;;;;3586297;40;20042;-49
2021/04/07 12:14:21;;;;;;;3.67;1.20;;;;;;;;;;3584783;40;20035;-51
2021/04/07 12:16:46;;;;;;;4.95;1.45;;;;;;;;;;3586129;40;20125;-50
2021/04/07 12:19:12;;;;;;;3.50;1.55;;;;;;;;;;3585899;40;20044;-53
2021/04/07 12:21:39;;;;;;;3.97;1.30;;;;;;;;;;3586234;40;20065;-53
2021/04/07 12:24:05;;;;;;;3.80;1.50;;;;;;;;;;3585673;40;20037;-51
2021/04/07 12:26:32;;;;;;;4.50;1.40;;;;;;;;;;3586175;40;20044;-53
2021/04/07 12:28:57;;;;;;;3.42;1.05;;;;;;;;;;3586460;40;20130;-54
2021/04/07 12:31:23;;;;;;;3.67;1.35;;;;;;;;;;3585784;40;20483;-51
2021/04/07 12:33:57;;;;;;;5.32;1.23;;;;;;;;;;3584859;40;20051;-54
2021/04/07 12:36:26;;;;;;;2.90;1.23;;;;;;;;;;3585788;40;20086;-52
2021/04/07 12:38:55;;;;;;;2.15;1.23;;;;;;;;;;3585537;40;20025;-51
2021/04/07 12:41:28;;;;;;;2.63;1.10;;;;;;;;;;3585562;40;20099;-52
2021/04/07 12:43:54;;;;;;;4.47;1.58;;;;;;;;;;3585355;40;20354;-51
2021/04/07 12:46:20;;;;;;;4.30;1.52;;;;;;;;;;3586660;40;20045;-55
2021/04/07 12:48:48;;;;;;;3.05;1.20;;;;;;;;;;3587224;40;20051;-52
2021/04/07 12:51:15;;;;;;;3.25;1.58;;;;;;;;;;3586971;40;20065;-54
2021/04/07 12:53:41;;;;;;;3.35;1.10;;;;;;;;;;3587242;40;20037;-50
2021/04/07 12:56:08;;;;;;;5.70;1.20;;;;;;;;;;3587171;40;20056;-54
2021/04/07 12:58:33;;;;;;;3.83;1.33;;;;;;;;;;3586715;40;20512;-53
2021/04/07 13:00:59;;;;;;;3.97;1.33;;;;;;;;;;3587649;40;20048;-51
2021/04/07 13:03:24;;;;;;;3.17;1.40;;;;;;;;;;3587616;40;20036;-51
2021/04/07 13:05:49;;;;;;;3.78;1.50;;;;;;;;;;3587399;40;20035;-52
2021/04/07 13:08:15;;;;;;;7.72;1.85;;;;;;;;;;3586521;40;20021;-55
2021/04/07 13:10:41;;;;;;;4.40;1.73;;;;;;;;;;3587665;40;20029;-51
2021/04/07 13:13:06;;;;;;;3.90;1.58;;;;;;;;;;3587452;40;20271;-54
2021/04/07 13:15:34;;;;;;;4.00;2.13;;;;;;;;;;3586057;40;20059;-52
2021/04/07 13:17:59;;;;;;;4.25;1.48;;;;;;;;;;3587606;40;20034;-52
2021/04/07 13:20:27;;;;;;;4.50;1.60;;;;;;;;;;3587502;40;20044;-54
2021/04/07 13:22:53;;;;;;;4.45;1.85;;;;;;;;;;3587009;40;20036;-51
2021/04/07 13:25:18;;;;;;;2.97;1.60;;;;;;;;;;3586978;40;20049;-53
2021/04/07 13:27:44;;;;;;;4.10;2.05;;;;;;;;;;3587455;40;20032;-50
2021/04/07 13:30:11;;;;;;;3.10;1.52;;;;;;;;;;3587389;40;20052;-53
2021/04/07 13:32:43;;;;;;;3.00;1.50;;;;;;;;;;3587827;40;20241;-50
2021/04/07 13:37:59;;;;;;;3.25;1.55;;;;;;;;;;3582115;40;19956;-55
2021/04/07 13:42:56;;;;;;;4.15;1.70;;;;;;;;;;3585982;40;20048;-51
2021/04/07 13:45:27;;;;;;;3.58;1.75;;;;;;;;;;3587378;40;20044;-55
2021/04/07 13:47:56;;;;;;;3.72;1.73;;;;;;;;;;3586543;40;20048;-53
2021/04/07 13:50:22;;;;;;;5.63;2.08;;;;;;;;;;3587363;40;20040;-51
2021/04/07 13:52:50;;;;;;;3.03;1.42;;;;;;;;;;3586313;40;20048;-49
2021/04/07 13:55:23;;;;;;;2.97;1.48;;;;;;;;;;3587243;40;20039;-50
2021/04/07 13:57:49;;;;;;;2.92;1.55;;;;;;;;;;3586478;40;20041;-55
2021/04/07 14:00:16;;;;;;;3.67;1.90;;;;;;;;;;3587364;40;20398;-54
2021/04/07 14:02:42;;;;;;;4.47;2.05;;;;;;;;;;3586767;40;20037;-52
2021/04/07 14:05:08;;;;;;;3.95;1.92;;;;;;;;;;3586162;40;20035;-50
2021/04/07 14:07:33;;;;;;;3.78;2.03;;;;;;;;;;3577962;40;20036;-52
2021/04/07 14:09:59;;;;;;;6.03;1.80;;;;;;;;;;3586372;40;20039;-53
2021/04/07 14:12:33;;;;;;;4.22;2.00;;;;;;;;;;3586071;40;20629;-48
2021/04/07 14:14:59;;;;;;;10.43;2.15;;;;;;;;;;3587359;40;20017;-53
2021/04/07 14:17:25;;;;;;;4.78;2.20;;;;;;;;;;3585853;40;20037;-51
2021/04/07 14:19:50;;;;;;;4.32;2.42;;;;;;;;;;3583695;40;20278;-54
2021/04/07 14:22:15;;;;;;;6.57;2.95;;;;;;;;;;3586474;40;20036;-53
2021/04/07 14:24:42;;;;;;;4.47;2.35;;;;;;;;;;3586949;40;20145;-54
2021/04/07 14:27:07;;;;;;;5.20;2.30;;;;;;;;;;3586170;40;20065;-50
2021/04/07 14:29:34;;;;;;;4.50;2.38;;;;;;;;;;3586818;40;20134;-52
2021/04/07 14:32:01;;;;;;;5.57;2.53;;;;;;;;;;3585738;40;20036;-52
2021/04/07 14:34:26;;;;;;;5.10;2.67;;;;;;;;;;3585769;40;20604;-55
2021/04/07 14:36:52;;;;;;;5.05;2.30;;;;;;;;;;3586587;40;20037;-53
2021/04/07 14:39:17;;;;;;;7.32;3.13;;;;;;;;;;3586318;40;20292;-53
2021/04/07 14:41:42;;;;;;;3.78;2.10;;;;;;;;;;3587208;40;20121;-55
2021/04/07 14:44:09;;;;;;;4.00;2.40;;;;;;;;;;3587325;40;20044;-52
2021/04/07 14:46:34;;;;;;;5.43;2.80;;;;;;;;;;3585910;40;20055;-53
2021/04/07 14:49:00;;;;;;;4.00;2.17;;;;;;;;;;3586375;40;20028;-54
2021/04/07 14:51:27;;;;;;;3.92;2.20;;;;;;;;;;3586137;40;20367;-51
2021/04/07 14:54:07;;;;;;;5.60;2.47;;;;;;;;;;3586317;40;20284;-50